Time;durP1;ratioP1;P1;durP2;ratioP2;P2;SDS_P1;SDS_P2;PMS_P1;PMS_P2;Temp;Humidity;BMP_temperature;BMP_pressure;BME280_temperature;BME280_humidity;BME280_pressure;Samples;Min_cycle;Max_cycle;Signal;HPM_P1;HPM_P2
2021/10/17 00:00:25;;;;;;;5.77;3.93;;;;;;;;;;5028804;28;20222;-64
2021/10/17 00:02:52;;;;;;;4.33;3.93;;;;;;;;;;5011948;28;20208;-65
2021/10/17 00:05:22;;;;;;;7.53;3.87;;;;;;;;;;5022609;28;20348;-65
2021/10/17 00:07:51;;;;;;;6.20;3.90;;;;;;;;;;5012128;28;20261;-65
2021/10/17 00:10:19;;;;;;;4.90;3.73;;;;;;;;;;5011451;28;20206;-65
2021/10/17 00:12:46;;;;;;;5.83;3.87;;;;;;;;;;5010875;28;20236;-64
2021/10/17 00:15:15;;;;;;;4.73;3.83;;;;;;;;;;5012117;28;20977;-65
2021/10/17 00:17:44;;;;;;;5.17;3.47;;;;;;;;;;5027374;28;20649;-66
2021/10/17 00:20:12;;;;;;;7.53;4.37;;;;;;;;;;5014681;28;20630;-65
2021/10/17 00:22:49;;;;;;;4.47;4.00;;;;;;;;;;5009685;28;20182;-65
2021/10/17 00:25:15;;;;;;;5.83;3.80;;;;;;;;;;5021131;28;20174;-65
2021/10/17 00:27:41;;;;;;;4.20;3.63;;;;;;;;;;5029517;28;20192;-64
2021/10/17 00:30:15;;;;;;;4.90;4.00;;;;;;;;;;5028829;28;20197;-65
2021/10/17 00:32:55;;;;;;;4.60;3.90;;;;;;;;;;5006122;28;20185;-65
2021/10/17 00:35:21;;;;;;;3.90;3.50;;;;;;;;;;5010962;28;20186;-65
2021/10/17 00:37:48;;;;;;;5.93;4.07;;;;;;;;;;5028709;28;20173;-65
2021/10/17 00:40:16;;;;;;;4.83;3.70;;;;;;;;;;5011777;28;20185;-65
2021/10/17 00:42:43;;;;;;;4.47;3.50;;;;;;;;;;5028003;28;20271;-65
2021/10/17 00:45:14;;;;;;;6.87;4.07;;;;;;;;;;5010847;28;20193;-66
2021/10/17 00:47:41;;;;;;;4.77;3.73;;;;;;;;;;5010393;28;20235;-65
2021/10/17 00:50:08;;;;;;;7.07;4.10;;;;;;;;;;5029405;28;20197;-65
2021/10/17 00:52:35;;;;;;;5.83;3.90;;;;;;;;;;5009349;28;20199;-65
2021/10/17 00:55:24;;;;;;;7.03;4.33;;;;;;;;;;5028197;28;20193;-65
2021/10/17 00:57:48;;;;;;;6.87;3.87;;;;;;;;;;5020229;28;20656;-66
2021/10/17 01:00:38;;;;;;;4.77;3.67;;;;;;;;;;5026315;28;20243;-66
2021/10/17 01:03:04;;;;;;;4.87;3.77;;;;;;;;;;5007659;28;20197;-66
2021/10/17 01:05:30;;;;;;;6.90;4.17;;;;;;;;;;5012036;28;20197;-65
2021/10/17 01:07:59;;;;;;;5.27;3.40;;;;;;;;;;5010151;28;20245;-66
2021/10/17 01:10:29;;;;;;;6.17;3.90;;;;;;;;;;5016926;28;20208;-65
2021/10/17 01:12:58;;;;;;;4.53;3.63;;;;;;;;;;5009998;28;20213;-65
2021/10/17 01:15:24;;;;;;;7.13;4.10;;;;;;;;;;5012251;28;20621;-65
2021/10/17 01:17:51;;;;;;;4.77;3.97;;;;;;;;;;5029180;28;20181;-65
2021/10/17 01:20:23;;;;;;;5.27;3.80;;;;;;;;;;5015896;28;20197;-65
2021/10/17 01:25:38;;;;;;;4.00;3.60;;;;;;;;;;5006430;28;20649;-65
2021/10/17 01:28:09;;;;;;;4.07;3.57;;;;;;;;;;5008940;28;20201;-65
2021/10/17 01:30:47;;;;;;;5.47;4.10;;;;;;;;;;5029056;28;20198;-65
2021/10/17 01:33:13;;;;;;;4.30;3.37;;;;;;;;;;5012593;28;20236;-65
2021/10/17 01:36:05;;;;;;;5.97;3.60;;;;;;;;;;5029341;28;20206;-65
2021/10/17 01:38:31;;;;;;;6.97;3.40;;;;;;;;;;5006710;28;20170;-65
2021/10/17 01:40:58;;;;;;;4.67;4.10;;;;;;;;;;5008260;28;20196;-65
2021/10/17 01:43:28;;;;;;;6.47;4.00;;;;;;;;;;5010633;28;20217;-65
2021/10/17 01:46:02;;;;;;;7.90;4.17;;;;;;;;;;5009065;28;20190;-65
2021/10/17 01:48:38;;;;;;;6.60;3.73;;;;;;;;;;5009417;28;20201;-65
2021/10/17 01:51:04;;;;;;;4.30;3.47;;;;;;;;;;5007223;28;20224;-65
2021/10/17 01:53:31;;;;;;;4.80;3.73;;;;;;;;;;5008431;28;20601;-65
2021/10/17 01:55:57;;;;;;;4.67;3.47;;;;;;;;;;5008010;28;20301;-64
2021/10/17 01:58:24;;;;;;;4.47;3.73;;;;;;;;;;5008648;28;20215;-65
2021/10/17 02:00:53;;;;;;;6.17;4.10;;;;;;;;;;5026370;28;20192;-65
2021/10/17 02:03:20;;;;;;;6.13;5.60;;;;;;;;;;5009619;28;20221;-64
2021/10/17 02:05:47;;;;;;;5.43;3.23;;;;;;;;;;5009491;28;20605;-65
2021/10/17 02:08:25;;;;;;;4.73;3.50;;;;;;;;;;5011581;28;20200;-64
2021/10/17 02:10:51;;;;;;;6.67;4.37;;;;;;;;;;5011419;28;20236;-65
2021/10/17 02:13:17;;;;;;;4.07;3.67;;;;;;;;;;5010548;28;20174;-65
2021/10/17 02:15:52;;;;;;;5.00;4.17;;;;;;;;;;5013550;28;20632;-65
2021/10/17 02:18:18;;;;;;;6.07;3.80;;;;;;;;;;5012092;28;20251;-65
2021/10/17 02:20:51;;;;;;;4.40;3.77;;;;;;;;;;5029427;28;20189;-65
2021/10/17 02:23:18;;;;;;;3.73;3.43;;;;;;;;;;5016131;28;20188;-65
2021/10/17 02:25:44;;;;;;;4.40;3.57;;;;;;;;;;5016413;28;20582;-65
2021/10/17 02:28:10;;;;;;;6.33;4.30;;;;;;;;;;5012025;28;20292;-65
2021/10/17 02:30:36;;;;;;;4.60;3.80;;;;;;;;;;5010922;28;20197;-65
2021/10/17 02:33:06;;;;;;;6.07;3.73;;;;;;;;;;5030986;28;20411;-64
2021/10/17 02:35:41;;;;;;;6.70;4.37;;;;;;;;;;5013533;28;20181;-65
2021/10/17 02:38:08;;;;;;;4.50;3.37;;;;;;;;;;5008718;28;20189;-65
2021/10/17 02:40:53;;;;;;;4.37;3.63;;;;;;;;;;5018440;28;20628;-64
2021/10/17 02:43:19;;;;;;;4.13;3.73;;;;;;;;;;5011558;28;20213;-65
2021/10/17 02:45:48;;;;;;;3.90;3.33;;;;;;;;;;5011383;28;20193;-65
2021/10/17 02:48:38;;;;;;;5.53;3.67;;;;;;;;;;5030831;28;20184;-65
2021/10/17 02:51:07;;;;;;;5.37;4.13;;;;;;;;;;5024102;28;20270;-65
2021/10/17 02:53:33;;;;;;;5.93;4.40;;;;;;;;;;5030576;28;20629;-65
2021/10/17 02:56:07;;;;;;;4.23;3.87;;;;;;;;;;5010910;28;20629;-65
2021/10/17 02:58:33;;;;;;;4.77;4.27;;;;;;;;;;5011726;28;20522;-65
2021/10/17 03:01:07;;;;;;;4.37;3.60;;;;;;;;;;5029371;28;20186;-65
2021/10/17 03:03:34;;;;;;;5.67;3.90;;;;;;;;;;5010237;28;20682;-65
2021/10/17 03:06:02;;;;;;;5.10;3.80;;;;;;;;;;5011929;28;20182;-65
2021/10/17 03:08:31;;;;;;;5.37;3.73;;;;;;;;;;5011898;28;20255;-65
2021/10/17 03:11:19;;;;;;;3.97;3.40;;;;;;;;;;5010647;28;20218;-66
2021/10/17 03:13:51;;;;;;;5.43;3.70;;;;;;;;;;5027856;28;20217;-66
2021/10/17 03:16:18;;;;;;;6.33;5.43;;;;;;;;;;5011546;28;20639;-65
2021/10/17 03:18:44;;;;;;;3.60;3.27;;;;;;;;;;5010559;28;20181;-65
2021/10/17 03:21:14;;;;;;;4.00;3.60;;;;;;;;;;5010912;28;20572;-65
2021/10/17 03:23:40;;;;;;;4.27;3.33;;;;;;;;;;5011157;28;20178;-65
2021/10/17 03:26:06;;;;;;;5.93;4.07;;;;;;;;;;5030216;28;20173;-65
2021/10/17 03:28:32;;;;;;;4.43;3.50;;;;;;;;;;5010959;28;20207;-65
2021/10/17 03:30:58;;;;;;;3.47;3.17;;;;;;;;;;5010979;28;20648;-65
2021/10/17 03:33:27;;;;;;;4.23;3.83;;;;;;;;;;5011615;28;20184;-65
2021/10/17 03:35:53;;;;;;;3.90;3.50;;;;;;;;;;5008715;28;20280;-66
2021/10/17 03:38:37;;;;;;;4.17;3.73;;;;;;;;;;5011115;28;20192;-65
2021/10/17 03:41:15;;;;;;;5.30;3.67;;;;;;;;;;5009488;28;20255;-65
2021/10/17 03:43:42;;;;;;;4.83;3.90;;;;;;;;;;5007460;28;20213;-65
2021/10/17 03:46:08;;;;;;;5.77;3.60;;;;;;;;;;5029143;28;20221;-65
2021/10/17 03:48:34;;;;;;;6.23;4.20;;;;;;;;;;5011016;28;20185;-65
2021/10/17 03:51:09;;;;;;;5.17;3.70;;;;;;;;;;5028742;28;20190;-65
2021/10/17 03:53:49;;;;;;;4.27;3.60;;;;;;;;;;5012157;28;20188;-65
2021/10/17 03:56:21;;;;;;;6.63;4.00;;;;;;;;;;5007461;28;20663;-65
2021/10/17 03:58:56;;;;;;;5.90;4.53;;;;;;;;;;5010029;28;20253;-65
2021/10/17 04:01:22;;;;;;;4.53;3.90;;;;;;;;;;5010105;28;20245;-66
2021/10/17 04:03:48;;;;;;;5.23;3.83;;;;;;;;;;5029143;28;20560;-65
2021/10/17 04:06:14;;;;;;;7.37;5.00;;;;;;;;;;5008400;28;20683;-65
2021/10/17 04:08:41;;;;;;;5.97;3.93;;;;;;;;;;5010622;28;20256;-65
2021/10/17 04:11:11;;;;;;;5.67;4.00;;;;;;;;;;5009593;28;20233;-65
2021/10/17 04:13:37;;;;;;;5.60;3.40;;;;;;;;;;5010361;28;20206;-65
2021/10/17 04:16:03;;;;;;;6.60;4.23;;;;;;;;;;5028557;28;20698;-65
2021/10/17 04:18:29;;;;;;;4.70;3.57;;;;;;;;;;5027977;28;20530;-65
2021/10/17 04:21:08;;;;;;;7.17;4.33;;;;;;;;;;5009671;28;20209;-65
2021/10/17 04:23:38;;;;;;;4.93;3.93;;;;;;;;;;5028432;28;20186;-64
2021/10/17 04:26:04;;;;;;;6.47;4.13;;;;;;;;;;5027101;28;20173;-64
2021/10/17 04:31:22;;;;;;;7.23;3.73;;;;;;;;;;5021787;28;20206;-65
2021/10/17 04:33:49;;;;;;;7.23;4.13;;;;;;;;;;5010182;28;20178;-65
2021/10/17 04:36:21;;;;;;;6.17;4.37;;;;;;;;;;5010270;28;20174;-65
2021/10/17 04:38:47;;;;;;;7.07;4.07;;;;;;;;;;5008244;28;20194;-65
2021/10/17 04:41:14;;;;;;;6.63;4.03;;;;;;;;;;5012872;28;20262;-65
2021/10/17 04:43:40;;;;;;;5.33;3.87;;;;;;;;;;5009325;28;20209;-65
2021/10/17 04:46:11;;;;;;;6.40;5.03;;;;;;;;;;5026557;28;20182;-65
2021/10/17 04:48:37;;;;;;;5.83;4.20;;;;;;;;;;5019427;28;20245;-64
2021/10/17 04:51:32;;;;;;;8.80;3.80;;;;;;;;;;5008941;28;20209;-65
2021/10/17 04:54:06;;;;;;;8.00;4.50;;;;;;;;;;5027616;28;20185;-66
2021/10/17 04:56:32;;;;;;;6.93;4.33;;;;;;;;;;5010362;28;20610;-65
2021/10/17 04:58:58;;;;;;;11.77;3.93;;;;;;;;;;5026483;28;20198;-66
2021/10/17 05:01:27;;;;;;;5.87;3.70;;;;;;;;;;5009209;28;20186;-66
2021/10/17 05:03:53;;;;;;;6.37;3.87;;;;;;;;;;5010872;28;20220;-65
2021/10/17 05:06:19;;;;;;;8.40;3.97;;;;;;;;;;5010003;28;20181;-64
2021/10/17 05:08:46;;;;;;;6.10;4.23;;;;;;;;;;5025179;28;20618;-65
2021/10/17 05:11:25;;;;;;;5.67;4.20;;;;;;;;;;5009001;28;20260;-66
2021/10/17 05:13:51;;;;;;;4.67;3.57;;;;;;;;;;5010268;28;20173;-65
2021/10/17 05:16:18;;;;;;;8.60;4.27;;;;;;;;;;5009435;28;20169;-65
2021/10/17 05:18:44;;;;;;;5.17;4.03;;;;;;;;;;5009834;28;20174;-65
2021/10/17 05:21:27;;;;;;;;;;;;;;;;;;;;;
2021/10/17 05:23:58;;;;;;;4.47;3.70;;;;;;;;;;5023869;28;20185;-65
2021/10/17 05:26:35;;;;;;;6.13;4.33;;;;;;;;;;5009216;28;20182;-66
2021/10/17 05:29:01;;;;;;;5.67;3.97;;;;;;;;;;5009130;28;20363;-65
2021/10/17 05:34:20;;;;;;;5.13;3.93;;;;;;;;;;5017627;28;20217;-66
2021/10/17 05:36:46;;;;;;;5.97;3.83;;;;;;;;;;5003874;28;20265;-64
2021/10/17 05:39:24;;;;;;;6.13;3.93;;;;;;;;;;5010262;28;20185;-65
2021/10/17 05:41:51;;;;;;;4.17;3.77;;;;;;;;;;5007974;28;20209;-65
2021/10/17 05:44:17;;;;;;;4.67;3.73;;;;;;;;;;5032186;28;20209;-65
2021/10/17 05:46:43;;;;;;;6.60;5.27;;;;;;;;;;5013376;28;20198;-64
2021/10/17 05:49:12;;;;;;;7.23;4.30;;;;;;;;;;5013247;28;20622;-65
2021/10/17 05:51:47;;;;;;;5.70;4.80;;;;;;;;;;5011461;28;20473;-65
2021/10/17 05:54:13;;;;;;;6.77;4.13;;;;;;;;;;5030085;28;20228;-65
2021/10/17 05:56:48;;;;;;;5.87;3.97;;;;;;;;;;5029113;28;20166;-65
2021/10/17 05:59:14;;;;;;;10.10;4.60;;;;;;;;;;5010261;28;20255;-65
2021/10/17 06:01:47;;;;;;;5.33;4.33;;;;;;;;;;5029736;28;20543;-65
2021/10/17 06:04:18;;;;;;;6.47;3.90;;;;;;;;;;5008204;28;20215;-65
2021/10/17 06:06:45;;;;;;;7.33;4.20;;;;;;;;;;5009967;28;20231;-65
2021/10/17 06:09:17;;;;;;;7.60;3.97;;;;;;;;;;5012294;28;20208;-65
2021/10/17 06:11:43;;;;;;;6.50;3.87;;;;;;;;;;5011653;28;20229;-65
2021/10/17 06:14:20;;;;;;;5.83;4.17;;;;;;;;;;5012268;28;20190;-65
2021/10/17 06:16:56;;;;;;;8.57;3.90;;;;;;;;;;5011672;28;20243;-66
2021/10/17 06:19:29;;;;;;;4.70;3.77;;;;;;;;;;5012521;28;20268;-65
2021/10/17 06:22:11;;;;;;;5.37;4.00;;;;;;;;;;5011197;28;20188;-65
2021/10/17 06:25:03;;;;;;;4.83;4.33;;;;;;;;;;5008950;28;20281;-65
2021/10/17 06:27:33;;;;;;;5.53;4.00;;;;;;;;;;5004095;28;21507;-65
2021/10/17 06:29:59;;;;;;;5.77;4.23;;;;;;;;;;5012981;28;20570;-65
2021/10/17 06:32:31;;;;;;;5.10;3.90;;;;;;;;;;5010420;28;20173;-65
2021/10/17 06:35:24;;;;;;;4.83;3.77;;;;;;;;;;5010568;28;20281;-66
2021/10/17 06:37:53;;;;;;;5.57;4.07;;;;;;;;;;5025231;28;20558;-64
2021/10/17 06:41:07;;;;;;;8.40;4.23;;;;;;;;;;5011450;28;20244;-65
2021/10/17 06:43:12;;;;;;;5.13;3.53;;;;;;;;;;5009654;28;20193;-65
2021/10/17 06:45:44;;;;;;;4.53;3.93;;;;;;;;;;5011431;28;20268;-64
2021/10/17 06:48:10;;;;;;;5.73;4.20;;;;;;;;;;5007537;28;20277;-65
2021/10/17 06:50:36;;;;;;;5.57;3.87;;;;;;;;;;5011584;28;20197;-64
2021/10/17 06:53:02;;;;;;;4.20;3.67;;;;;;;;;;5028174;28;20259;-65
2021/10/17 06:55:28;;;;;;;4.83;3.93;;;;;;;;;;5029028;28;20273;-65
2021/10/17 06:57:55;;;;;;;5.60;4.00;;;;;;;;;;5039254;28;20280;-65
2021/10/17 07:00:21;;;;;;;5.93;3.80;;;;;;;;;;5011078;28;20221;-64
2021/10/17 07:02:47;;;;;;;4.60;3.73;;;;;;;;;;5011019;28;20185;-64
2021/10/17 07:05:13;;;;;;;4.90;3.93;;;;;;;;;;5010876;28;20235;-65
2021/10/17 07:07:49;;;;;;;7.73;4.00;;;;;;;;;;5010740;28;20672;-65
2021/10/17 07:10:15;;;;;;;8.37;4.20;;;;;;;;;;5008637;28;20323;-65
2021/10/17 07:12:51;;;;;;;4.60;4.00;;;;;;;;;;5016372;28;20546;-66
2021/10/17 07:15:29;;;;;;;11.20;3.67;;;;;;;;;;4993200;28;20257;-65
2021/10/17 07:18:01;;;;;;;4.30;3.90;;;;;;;;;;5013784;28;20186;-65
2021/10/17 07:20:59;;;;;;;6.03;4.40;;;;;;;;;;5012399;28;20186;-64
2021/10/17 07:23:17;;;;;;;6.20;3.90;;;;;;;;;;5025141;28;20186;-64
2021/10/17 07:25:43;;;;;;;8.53;4.50;;;;;;;;;;5010252;28;20187;-64
2021/10/17 07:28:09;;;;;;;7.47;4.50;;;;;;;;;;5027952;28;20551;-64
2021/10/17 07:30:38;;;;;;;6.83;4.40;;;;;;;;;;5012213;28;20213;-64
2021/10/17 07:33:23;;;;;;;5.33;4.20;;;;;;;;;;5027204;28;20251;-65
2021/10/17 07:35:49;;;;;;;7.20;4.33;;;;;;;;;;5002643;28;20182;-64
2021/10/17 07:38:41;;;;;;;11.33;4.57;;;;;;;;;;5023342;28;20209;-65
2021/10/17 07:41:07;;;;;;;6.13;4.50;;;;;;;;;;5023417;28;20182;-65
2021/10/17 07:43:36;;;;;;;6.77;4.37;;;;;;;;;;5026882;28;20189;-65
2021/10/17 07:46:18;;;;;;;;;;;;;;;;;;;;;
2021/10/17 07:48:56;;;;;;;5.77;4.07;;;;;;;;;;5028766;28;20177;-65
2021/10/17 07:51:23;;;;;;;7.33;4.60;;;;;;;;;;5013529;28;20267;-65
2021/10/17 07:53:50;;;;;;;7.60;4.20;;;;;;;;;;5011900;28;20265;-65
2021/10/17 07:56:19;;;;;;;8.17;4.30;;;;;;;;;;5023746;28;20181;-65
2021/10/17 07:58:50;;;;;;;6.73;4.10;;;;;;;;;;5007529;28;20266;-65
2021/10/17 08:01:16;;;;;;;5.13;4.17;;;;;;;;;;5008049;28;20295;-65
2021/10/17 08:03:42;;;;;;;6.47;4.97;;;;;;;;;;5026331;28;20185;-66
2021/10/17 08:06:08;;;;;;;5.50;4.20;;;;;;;;;;5009709;28;20182;-66
2021/10/17 08:08:34;;;;;;;8.23;4.37;;;;;;;;;;5010248;28;20173;-65
2021/10/17 08:11:00;;;;;;;7.97;4.90;;;;;;;;;;5026760;28;20221;-65
2021/10/17 08:13:30;;;;;;;5.80;4.60;;;;;;;;;;5006511;28;20240;-66
2021/10/17 08:15:56;;;;;;;5.10;4.07;;;;;;;;;;5008450;28;20193;-66
2021/10/17 08:18:24;;;;;;;7.07;4.13;;;;;;;;;;5007771;28;20186;-64
2021/10/17 08:20:50;;;;;;;6.20;4.53;;;;;;;;;;5009415;28;20185;-64
2021/10/17 08:23:25;;;;;;;6.67;4.53;;;;;;;;;;5025071;28;20564;-65
2021/10/17 08:26:14;;;;;;;6.27;4.73;;;;;;;;;;5008484;28;20288;-65
2021/10/17 08:28:40;;;;;;;6.80;4.90;;;;;;;;;;5008287;28;20197;-65
2021/10/17 08:31:12;;;;;;;7.33;4.40;;;;;;;;;;5026062;28;20549;-65
2021/10/17 08:33:39;;;;;;;6.60;4.50;;;;;;;;;;5007392;28;20177;-65
2021/10/17 08:36:05;;;;;;;5.80;4.20;;;;;;;;;;5027089;28;20542;-65
2021/10/17 08:38:37;;;;;;;6.63;4.67;;;;;;;;;;5014958;28;20174;-65
2021/10/17 08:41:03;;;;;;;7.20;5.03;;;;;;;;;;5006959;28;20514;-65
2021/10/17 08:43:29;;;;;;;7.30;4.60;;;;;;;;;;5008635;28;20212;-65
2021/10/17 08:45:56;;;;;;;6.73;4.17;;;;;;;;;;5025380;28;20638;-66
2021/10/17 08:48:27;;;;;;;9.90;5.33;;;;;;;;;;5009630;28;20178;-65
2021/10/17 08:50:54;;;;;;;49.30;19.13;;;;;;;;;;5012150;28;20200;-65
2021/10/17 08:53:29;;;;;;;52.10;26.97;;;;;;;;;;5012419;28;20252;-65
2021/10/17 08:55:58;;;;;;;44.33;23.40;;;;;;;;;;5005961;28;20181;-65
2021/10/17 08:58:34;;;;;;;42.60;23.87;;;;;;;;;;5007672;28;20170;-65
2021/10/17 09:01:18;;;;;;;43.50;21.60;;;;;;;;;;5017799;28;20225;-65
2021/10/17 09:04:06;;;;;;;43.67;20.77;;;;;;;;;;5006624;28;20193;-65
2021/10/17 09:06:37;;;;;;;44.33;20.93;;;;;;;;;;5008665;28;20200;-65
2021/10/17 09:09:05;;;;;;;32.80;19.83;;;;;;;;;;5004577;28;20248;-65
2021/10/17 09:11:51;;;;;;;34.73;19.97;;;;;;;;;;5004647;28;20213;-65
2021/10/17 09:14:24;;;;;;;28.77;14.50;;;;;;;;;;5025961;28;20609;-65
2021/10/17 09:17:04;;;;;;;28.33;14.67;;;;;;;;;;5010315;28;20157;-65
2021/10/17 09:19:32;;;;;;;26.37;13.93;;;;;;;;;;5029764;28;20173;-65
2021/10/17 09:22:14;;;;;;;22.27;12.63;;;;;;;;;;5012709;28;20304;-66
2021/10/17 09:24:42;;;;;;;20.67;12.87;;;;;;;;;;4994250;28;20190;-66
2021/10/17 09:27:26;;;;;;;19.83;12.83;;;;;;;;;;5008815;28;20197;-65
2021/10/17 09:29:59;;;;;;;17.23;10.97;;;;;;;;;;4998310;28;20193;-65
2021/10/17 09:32:34;;;;;;;19.60;10.43;;;;;;;;;;5031224;28;20418;-65
2021/10/17 09:35:08;;;;;;;17.00;11.20;;;;;;;;;;5013504;28;20185;-65
2021/10/17 09:40:33;;;;;;;17.40;9.67;;;;;;;;;;5031709;28;20196;-65
2021/10/17 09:43:12;;;;;;;13.13;8.53;;;;;;;;;;5011933;28;20190;-65
2021/10/17 09:45:39;;;;;;;19.43;8.17;;;;;;;;;;5013517;28;20204;-65
2021/10/17 09:48:35;;;;;;;14.27;8.17;;;;;;;;;;5031191;28;20240;-65
2021/10/17 09:51:15;;;;;;;12.37;8.47;;;;;;;;;;5008686;28;20217;-65
2021/10/17 09:53:44;;;;;;;14.00;7.07;;;;;;;;;;5020608;28;20169;-65
2021/10/17 09:56:22;;;;;;;10.77;5.90;;;;;;;;;;5031870;28;20169;-65
2021/10/17 09:58:52;;;;;;;8.43;5.90;;;;;;;;;;5019414;28;20614;-65
2021/10/17 10:01:25;;;;;;;11.00;7.07;;;;;;;;;;5028606;28;20671;-65
2021/10/17 10:03:53;;;;;;;13.50;6.50;;;;;;;;;;5018782;28;20201;-65
2021/10/17 10:06:25;;;;;;;10.33;7.03;;;;;;;;;;5012947;28;20186;-65
2021/10/17 10:09:00;;;;;;;9.90;7.57;;;;;;;;;;5030826;28;20264;-65
2021/10/17 10:11:40;;;;;;;9.57;6.60;;;;;;;;;;5012063;28;20201;-65
2021/10/17 10:14:19;;;;;;;9.00;6.10;;;;;;;;;;5025349;28;20288;-65
2021/10/17 10:16:50;;;;;;;9.93;5.73;;;;;;;;;;5031606;28;20499;-65
2021/10/17 10:19:22;;;;;;;8.37;5.67;;;;;;;;;;5015826;28;20185;-65
2021/10/17 10:21:49;;;;;;;7.30;5.43;;;;;;;;;;5012522;28;20239;-65
2021/10/17 10:24:20;;;;;;;7.77;5.50;;;;;;;;;;5032206;28;20698;-65
2021/10/17 10:26:52;;;;;;;11.90;4.97;;;;;;;;;;5011427;28;20201;-65
2021/10/17 10:29:28;;;;;;;6.80;4.80;;;;;;;;;;5011908;28;20181;-65
2021/10/17 10:32:02;;;;;;;12.17;5.20;;;;;;;;;;5011762;28;20205;-65
2021/10/17 10:34:43;;;;;;;9.90;4.73;;;;;;;;;;5030651;28;20632;-65
2021/10/17 10:37:17;;;;;;;10.23;5.30;;;;;;;;;;5025551;28;20231;-64
2021/10/17 10:40:02;;;;;;;7.27;4.37;;;;;;;;;;5012382;28;20212;-64
2021/10/17 10:42:44;;;;;;;7.37;4.47;;;;;;;;;;5010925;28;20190;-65
2021/10/17 10:45:20;;;;;;;6.77;4.27;;;;;;;;;;5012212;28;20194;-64
2021/10/17 10:48:06;;;;;;;9.37;4.63;;;;;;;;;;5011384;28;20177;-64
2021/10/17 10:50:37;;;;;;;5.43;4.03;;;;;;;;;;4996334;28;20205;-65
2021/10/17 10:53:08;;;;;;;5.50;3.90;;;;;;;;;;5011155;28;20241;-65
2021/10/17 10:56:08;;;;;;;9.37;4.20;;;;;;;;;;5022418;28;20237;-65
2021/10/17 10:58:50;;;;;;;6.57;3.80;;;;;;;;;;5011911;28;20181;-65
2021/10/17 11:01:36;;;;;;;4.60;3.53;;;;;;;;;;5006522;28;20267;-65
2021/10/17 11:04:02;;;;;;;4.93;3.90;;;;;;;;;;4991215;28;20194;-64
2021/10/17 11:06:28;;;;;;;6.33;4.10;;;;;;;;;;4992365;28;20649;-65
2021/10/17 11:09:16;;;;;;;5.50;3.77;;;;;;;;;;4991615;28;20556;-64
2021/10/17 11:11:45;;;;;;;6.87;3.77;;;;;;;;;;4990629;28;20217;-65
2021/10/17 11:14:15;;;;;;;4.67;3.30;;;;;;;;;;4991502;28;20641;-65
2021/10/17 11:16:51;;;;;;;5.63;3.77;;;;;;;;;;4991772;28;20549;-65
2021/10/17 11:19:23;;;;;;;5.50;3.67;;;;;;;;;;4989788;28;20251;-65
2021/10/17 11:24:53;;;;;;;4.40;3.17;;;;;;;;;;4986615;28;20194;-64
2021/10/17 11:27:19;;;;;;;7.20;3.90;;;;;;;;;;4989880;28;20202;-65
2021/10/17 11:30:05;;;;;;;6.93;3.77;;;;;;;;;;4992051;28;20659;-64
2021/10/17 11:32:43;;;;;;;4.47;3.37;;;;;;;;;;4991870;28;20668;-64
2021/10/17 11:35:18;;;;;;;5.27;3.00;;;;;;;;;;5009337;28;20248;-64
2021/10/17 11:37:51;;;;;;;6.43;3.40;;;;;;;;;;4991372;28;20744;-64
2021/10/17 11:40:17;;;;;;;4.90;3.00;;;;;;;;;;5009037;28;20201;-64
2021/10/17 11:42:49;;;;;;;5.53;3.40;;;;;;;;;;4989768;28;20640;-63
2021/10/17 11:45:33;;;;;;;5.23;3.20;;;;;;;;;;4991271;28;20217;-64
2021/10/17 11:48:07;;;;;;;5.23;3.37;;;;;;;;;;4990809;28;20665;-64
2021/10/17 11:50:49;;;;;;;6.10;3.63;;;;;;;;;;5009624;28;20194;-64
2021/10/17 11:53:17;;;;;;;6.37;3.70;;;;;;;;;;4987988;28;20240;-65
2021/10/17 11:55:58;;;;;;;5.63;3.60;;;;;;;;;;4991216;28;20266;-64
2021/10/17 11:58:29;;;;;;;3.27;2.90;;;;;;;;;;4991366;28;20179;-65
2021/10/17 12:00:56;;;;;;;9.00;3.87;;;;;;;;;;5020867;28;20640;-64
2021/10/17 12:03:23;;;;;;;4.67;3.97;;;;;;;;;;5010524;28;20276;-64
2021/10/17 12:05:51;;;;;;;5.07;3.10;;;;;;;;;;5002321;28;20193;-64
2021/10/17 12:08:24;;;;;;;4.97;3.53;;;;;;;;;;5027088;28;20198;-65
2021/10/17 12:11:01;;;;;;;6.80;3.53;;;;;;;;;;5010252;28;20247;-64
2021/10/17 12:13:38;;;;;;;7.80;3.37;;;;;;;;;;5023367;28;20255;-65
2021/10/17 12:16:05;;;;;;;5.20;3.37;;;;;;;;;;5007378;28;20265;-64
2021/10/17 12:18:36;;;;;;;6.37;3.37;;;;;;;;;;5029314;28;20263;-65
2021/10/17 12:21:11;;;;;;;4.60;3.33;;;;;;;;;;5019769;28;20932;-64
2021/10/17 12:23:38;;;;;;;4.73;3.40;;;;;;;;;;5009670;28;20186;-64
2021/10/17 12:26:04;;;;;;;5.47;3.70;;;;;;;;;;5009275;28;20241;-64
2021/10/17 12:28:34;;;;;;;5.27;4.07;;;;;;;;;;5038334;28;20538;-64
2021/10/17 12:31:05;;;;;;;5.77;3.90;;;;;;;;;;5022629;28;20205;-65
2021/10/17 12:33:37;;;;;;;6.03;3.57;;;;;;;;;;5007280;28;20576;-64
2021/10/17 12:36:12;;;;;;;4.10;3.70;;;;;;;;;;5028134;28;20169;-64
2021/10/17 12:38:39;;;;;;;6.03;3.93;;;;;;;;;;5028259;28;20177;-64
2021/10/17 12:41:19;;;;;;;4.17;3.63;;;;;;;;;;5009213;28;20189;-64
2021/10/17 12:43:49;;;;;;;4.17;3.57;;;;;;;;;;5027588;28;20716;-65
2021/10/17 12:46:25;;;;;;;8.07;4.10;;;;;;;;;;5009705;28;20181;-66
2021/10/17 12:49:01;;;;;;;4.90;3.50;;;;;;;;;;5010377;28;20528;-65
2021/10/17 12:51:56;;;;;;;7.23;3.90;;;;;;;;;;5020822;28;20250;-65
2021/10/17 12:57:34;;;;;;;5.93;4.20;;;;;;;;;;5034490;28;20258;-65
2021/10/17 13:00:14;;;;;;;6.70;4.53;;;;;;;;;;5009561;28;20221;-65
2021/10/17 13:02:45;;;;;;;5.83;3.83;;;;;;;;;;5008980;28;20185;-65
2021/10/17 13:05:18;;;;;;;5.43;4.20;;;;;;;;;;5009638;28;20180;-65
2021/10/17 13:07:44;;;;;;;5.47;3.97;;;;;;;;;;5027570;28;20657;-65
2021/10/17 13:10:19;;;;;;;4.40;3.83;;;;;;;;;;5009546;28;20182;-65
2021/10/17 13:12:55;;;;;;;4.50;3.73;;;;;;;;;;5007963;28;20635;-64
2021/10/17 13:15:27;;;;;;;5.03;3.80;;;;;;;;;;5027755;28;20193;-64
2021/10/17 13:17:54;;;;;;;5.73;4.03;;;;;;;;;;4994927;28;20265;-65
2021/10/17 13:20:28;;;;;;;6.93;4.47;;;;;;;;;;5027720;28;20178;-65
2021/10/17 13:22:56;;;;;;;4.57;3.77;;;;;;;;;;5009335;28;20328;-64
2021/10/17 13:25:30;;;;;;;5.83;4.73;;;;;;;;;;5027470;28;20269;-64
2021/10/17 13:27:57;;;;;;;6.80;4.07;;;;;;;;;;5020288;28;20200;-66
2021/10/17 13:30:24;;;;;;;5.47;3.90;;;;;;;;;;5027616;28;20209;-66
2021/10/17 13:32:50;;;;;;;5.00;3.67;;;;;;;;;;5009172;28;20186;-66
2021/10/17 13:35:19;;;;;;;5.40;4.23;;;;;;;;;;5014874;28;20217;-64
2021/10/17 13:37:46;;;;;;;6.50;3.83;;;;;;;;;;5011681;28;20539;-65
2021/10/17 13:40:21;;;;;;;4.47;3.83;;;;;;;;;;5027776;28;20581;-65
2021/10/17 13:42:48;;;;;;;5.27;3.77;;;;;;;;;;5007398;28;20248;-64
2021/10/17 13:45:14;;;;;;;5.00;4.13;;;;;;;;;;5027877;28;20213;-64
2021/10/17 13:47:49;;;;;;;8.80;3.90;;;;;;;;;;5042868;28;20174;-65
2021/10/17 13:50:18;;;;;;;4.00;3.57;;;;;;;;;;5027343;28;20555;-65
2021/10/17 13:52:53;;;;;;;4.57;3.80;;;;;;;;;;5010065;28;20683;-64
2021/10/17 13:55:19;;;;;;;4.07;3.40;;;;;;;;;;5008995;28;20186;-64
2021/10/17 13:57:51;;;;;;;4.90;3.40;;;;;;;;;;5025665;28;20260;-64
2021/10/17 14:00:26;;;;;;;5.77;3.67;;;;;;;;;;5008987;28;20225;-65
2021/10/17 14:03:13;;;;;;;5.20;3.63;;;;;;;;;;5011670;28;20232;-65
2021/10/17 14:05:42;;;;;;;4.20;3.57;;;;;;;;;;5028721;28;20219;-65
2021/10/17 14:08:09;;;;;;;6.07;3.60;;;;;;;;;;5012303;28;20178;-65
2021/10/17 14:10:38;;;;;;;5.37;3.50;;;;;;;;;;5013534;28;20210;-65
2021/10/17 14:13:14;;;;;;;6.73;4.33;;;;;;;;;;5011129;28;20178;-65
2021/10/17 14:15:41;;;;;;;4.70;3.57;;;;;;;;;;5012749;28;20267;-64
2021/10/17 14:18:07;;;;;;;5.47;2.83;;;;;;;;;;5012575;28;20213;-64
2021/10/17 14:20:33;;;;;;;6.07;3.80;;;;;;;;;;5012993;28;20193;-64
2021/10/17 14:23:02;;;;;;;3.60;3.17;;;;;;;;;;5037751;28;20205;-64
2021/10/17 14:25:28;;;;;;;4.63;3.50;;;;;;;;;;5012916;28;20174;-65
2021/10/17 14:27:58;;;;;;;4.00;3.53;;;;;;;;;;5010824;28;20216;-65
2021/10/17 14:30:24;;;;;;;3.93;3.27;;;;;;;;;;5020534;28;20215;-65
2021/10/17 14:32:54;;;;;;;4.50;3.63;;;;;;;;;;5044524;28;20178;-64
2021/10/17 14:35:23;;;;;;;4.57;3.40;;;;;;;;;;5012562;28;20598;-65
2021/10/17 14:37:49;;;;;;;4.67;4.00;;;;;;;;;;5011886;28;20178;-65
2021/10/17 14:40:23;;;;;;;6.80;3.40;;;;;;;;;;5011358;28;20188;-65
2021/10/17 14:42:58;;;;;;;5.23;3.70;;;;;;;;;;5010079;28;20243;-65
2021/10/17 14:45:27;;;;;;;5.60;3.40;;;;;;;;;;5008381;28;20188;-65
2021/10/17 14:47:59;;;;;;;7.47;4.07;;;;;;;;;;5011589;28;20214;-64
2021/10/17 14:50:28;;;;;;;3.93;3.50;;;;;;;;;;5001877;28;20300;-65
2021/10/17 14:52:55;;;;;;;6.63;3.73;;;;;;;;;;5011443;28;20679;-65
2021/10/17 14:55:30;;;;;;;6.47;3.90;;;;;;;;;;5012396;28;20178;-64
2021/10/17 14:57:56;;;;;;;4.80;3.37;;;;;;;;;;5028731;28;20288;-64
2021/10/17 15:00:36;;;;;;;;;;;;;;;;;;;;;
2021/10/17 15:03:14;;;;;;;6.77;3.50;;;;;;;;;;5028166;28;20659;-65
2021/10/17 15:05:47;;;;;;;4.27;3.87;;;;;;;;;;5012291;28;20599;-64
2021/10/17 15:11:12;;;;;;;4.33;3.40;;;;;;;;;;5014802;28;20263;-65
2021/10/17 15:13:48;;;;;;;4.40;3.80;;;;;;;;;;5027690;28;20228;-64
2021/10/17 15:16:20;;;;;;;4.13;3.73;;;;;;;;;;5030428;28;20592;-65
2021/10/17 15:18:47;;;;;;;4.60;3.40;;;;;;;;;;5004074;28;20213;-64
2021/10/17 15:21:13;;;;;;;4.83;3.20;;;;;;;;;;5011305;28;20214;-65
2021/10/17 15:24:03;;;;;;;3.90;3.50;;;;;;;;;;5011785;28;20656;-64
2021/10/17 15:26:40;;;;;;;5.70;3.30;;;;;;;;;;5016494;28;20179;-64
2021/10/17 15:29:09;;;;;;;3.63;3.27;;;;;;;;;;5018834;28;20193;-65